sensor_id;sensor_type;location;lat;lon;timestamp;temperature;humidity
37944;DHT22;23767;42.024;23.086;2024-03-17T00:00:37;9.00;99.90
37944;DHT22;23767;42.024;23.086;2024-03-17T00:03:05;9.00;99.90
37944;DHT22;23767;42.024;23.086;2024-03-17T00:05:31;9.10;99.90
37944;DHT22;23767;42.024;23.086;2024-03-17T00:07:57;9.30;99.90
37944;DHT22;23767;42.024;23.086;2024-03-17T00:10:23;9.40;99.90
37944;DHT22;23767;42.024;23.086;2024-03-17T00:12:49;9.50;99.90
37944;DHT22;23767;42.024;23.086;2024-03-17T00:15:14;9.60;99.90
37944;DHT22;23767;42.024;23.086;2024-03-17T00:17:40;9.60;99.90
37944;DHT22;23767;42.024;23.086;2024-03-17T00:20:06;9.60;99.90
37944;DHT22;23767;42.024;23.086;2024-03-17T00:22:47;9.80;99.90
37944;DHT22;23767;42.024;23.086;2024-03-17T00:25:13;9.80;99.90
37944;DHT22;23767;42.024;23.086;2024-03-17T00:27:39;10.00;99.90
37944;DHT22;23767;42.024;23.086;2024-03-17T00:30:08;10.00;99.90
37944;DHT22;23767;42.024;23.086;2024-03-17T00:32:41;10.10;99.90
37944;DHT22;23767;42.024;23.086;2024-03-17T00:35:10;10.10;99.90
37944;DHT22;23767;42.024;23.086;2024-03-17T00:37:39;10.10;99.90
37944;DHT22;23767;42.024;23.086;2024-03-17T00:40:05;10.10;99.90
37944;DHT22;23767;42.024;23.086;2024-03-17T00:42:32;10.10;99.90
37944;DHT22;23767;42.024;23.086;2024-03-17T00:44:58;10.10;99.90
37944;DHT22;23767;42.024;23.086;2024-03-17T00:47:25;10.20;99.90
37944;DHT22;23767;42.024;23.086;2024-03-17T00:49:51;10.20;99.90
37944;DHT22;23767;42.024;23.086;2024-03-17T00:52:17;10.20;99.90
37944;DHT22;23767;42.024;23.086;2024-03-17T00:54:46;10.30;99.90
37944;DHT22;23767;42.024;23.086;2024-03-17T00:57:14;10.20;99.90
37944;DHT22;23767;42.024;23.086;2024-03-17T00:59:41;10.20;99.90
37944;DHT22;23767;42.024;23.086;2024-03-17T01:02:13;10.20;99.90
37944;DHT22;23767;42.024;23.086;2024-03-17T01:04:42;10.20;99.90
37944;DHT22;23767;42.024;23.086;2024-03-17T01:07:09;10.30;99.90
37944;DHT22;23767;42.024;23.086;2024-03-17T01:09:35;10.20;99.90
37944;DHT22;23767;42.024;23.086;2024-03-17T01:12:01;10.30;99.90
37944;DHT22;23767;42.024;23.086;2024-03-17T01:14:28;10.20;99.90
37944;DHT22;23767;42.024;23.086;2024-03-17T01:16:55;10.20;99.90
37944;DHT22;23767;42.024;23.086;2024-03-17T01:19:23;10.10;99.90
37944;DHT22;23767;42.024;23.086;2024-03-17T01:21:51;10.20;99.90
37944;DHT22;23767;42.024;23.086;2024-03-17T01:24:17;10.20;99.90
37944;DHT22;23767;42.024;23.086;2024-03-17T01:26:44;10.30;99.90
37944;DHT22;23767;42.024;23.086;2024-03-17T01:29:11;10.20;99.90
37944;DHT22;23767;42.024;23.086;2024-03-17T01:31:36;10.20;99.90
37944;DHT22;23767;42.024;23.086;2024-03-17T01:34:02;10.10;99.90
37944;DHT22;23767;42.024;23.086;2024-03-17T01:36:28;10.00;99.90
37944;DHT22;23767;42.024;23.086;2024-03-17T01:38:54;10.00;99.90
37944;DHT22;23767;42.024;23.086;2024-03-17T01:41:20;10.10;99.90
37944;DHT22;23767;42.024;23.086;2024-03-17T01:43:46;9.90;99.90
37944;DHT22;23767;42.024;23.086;2024-03-17T01:46:14;9.90;99.90
37944;DHT22;23767;42.024;23.086;2024-03-17T01:48:41;10.10;99.90
37944;DHT22;23767;42.024;23.086;2024-03-17T01:51:09;10.20;99.90
37944;DHT22;23767;42.024;23.086;2024-03-17T01:53:37;10.20;99.90
37944;DHT22;23767;42.024;23.086;2024-03-17T01:56:04;10.30;99.90
37944;DHT22;23767;42.024;23.086;2024-03-17T01:58:30;10.40;99.90
37944;DHT22;23767;42.024;23.086;2024-03-17T02:00:56;10.40;99.90
37944;DHT22;23767;42.024;23.086;2024-03-17T02:03:22;10.40;99.90
37944;DHT22;23767;42.024;23.086;2024-03-17T02:05:48;10.40;99.90
37944;DHT22;23767;42.024;23.086;2024-03-17T02:08:15;10.50;99.90
37944;DHT22;23767;42.024;23.086;2024-03-17T02:10:41;10.50;99.90
37944;DHT22;23767;42.024;23.086;2024-03-17T02:13:10;10.50;99.90
37944;DHT22;23767;42.024;23.086;2024-03-17T02:15:36;10.50;99.90
37944;DHT22;23767;42.024;23.086;2024-03-17T02:18:02;10.40;99.90
37944;DHT22;23767;42.024;23.086;2024-03-17T02:20:28;10.60;99.90
37944;DHT22;23767;42.024;23.086;2024-03-17T02:23:12;10.60;99.90
37944;DHT22;23767;42.024;23.086;2024-03-17T02:25:38;10.70;99.90
37944;DHT22;23767;42.024;23.086;2024-03-17T02:28:05;10.60;99.90
37944;DHT22;23767;42.024;23.086;2024-03-17T02:30:32;10.50;99.90
37944;DHT22;23767;42.024;23.086;2024-03-17T02:32:58;10.60;99.90
37944;DHT22;23767;42.024;23.086;2024-03-17T02:35:24;10.60;99.90
37944;DHT22;23767;42.024;23.086;2024-03-17T02:37:50;10.70;99.90
37944;DHT22;23767;42.024;23.086;2024-03-17T02:40:19;10.60;99.90
37944;DHT22;23767;42.024;23.086;2024-03-17T02:42:45;10.70;99.90
37944;DHT22;23767;42.024;23.086;2024-03-17T02:45:13;10.70;99.90
37944;DHT22;23767;42.024;23.086;2024-03-17T02:47:39;10.60;99.90
37944;DHT22;23767;42.024;23.086;2024-03-17T02:50:06;10.70;99.90
37944;DHT22;23767;42.024;23.086;2024-03-17T02:52:32;10.60;99.90
37944;DHT22;23767;42.024;23.086;2024-03-17T02:54:57;10.60;99.90
37944;DHT22;23767;42.024;23.086;2024-03-17T02:57:24;10.60;99.90
37944;DHT22;23767;42.024;23.086;2024-03-17T02:59:50;10.50;99.90
37944;DHT22;23767;42.024;23.086;2024-03-17T03:02:17;10.50;99.90
37944;DHT22;23767;42.024;23.086;2024-03-17T03:04:43;10.50;99.90
37944;DHT22;23767;42.024;23.086;2024-03-17T03:07:09;10.50;99.90
37944;DHT22;23767;42.024;23.086;2024-03-17T03:09:35;10.40;99.90
37944;DHT22;23767;42.024;23.086;2024-03-17T03:12:01;10.40;99.90
37944;DHT22;23767;42.024;23.086;2024-03-17T03:14:28;10.40;99.90
37944;DHT22;23767;42.024;23.086;2024-03-17T03:16:54;10.50;99.90
37944;DHT22;23767;42.024;23.086;2024-03-17T03:19:20;10.50;99.90
37944;DHT22;23767;42.024;23.086;2024-03-17T03:21:46;10.40;99.90
37944;DHT22;23767;42.024;23.086;2024-03-17T03:24:14;10.30;99.90
37944;DHT22;23767;42.024;23.086;2024-03-17T03:26:40;10.20;99.90
37944;DHT22;23767;42.024;23.086;2024-03-17T03:29:05;9.90;99.90
37944;DHT22;23767;42.024;23.086;2024-03-17T03:31:32;9.80;99.90
37944;DHT22;23767;42.024;23.086;2024-03-17T03:33:58;9.80;99.90
37944;DHT22;23767;42.024;23.086;2024-03-17T03:36:26;9.80;99.90
37944;DHT22;23767;42.024;23.086;2024-03-17T03:38:52;9.80;99.90
37944;DHT22;23767;42.024;23.086;2024-03-17T03:41:19;9.50;99.90
37944;DHT22;23767;42.024;23.086;2024-03-17T03:43:45;9.50;99.90
37944;DHT22;23767;42.024;23.086;2024-03-17T03:46:14;9.50;99.90
37944;DHT22;23767;42.024;23.086;2024-03-17T03:48:40;9.70;99.90
37944;DHT22;23767;42.024;23.086;2024-03-17T03:51:10;9.70;99.90
37944;DHT22;23767;42.024;23.086;2024-03-17T03:53:36;9.70;99.90
37944;DHT22;23767;42.024;23.086;2024-03-17T03:56:03;9.80;99.90
37944;DHT22;23767;42.024;23.086;2024-03-17T03:58:33;9.80;99.90
37944;DHT22;23767;42.024;23.086;2024-03-17T04:01:07;9.80;99.90
37944;DHT22;23767;42.024;23.086;2024-03-17T04:03:33;9.90;99.90
37944;DHT22;23767;42.024;23.086;2024-03-17T04:06:11;9.90;99.90
37944;DHT22;23767;42.024;23.086;2024-03-17T04:08:38;9.80;99.90
37944;DHT22;23767;42.024;23.086;2024-03-17T04:11:07;9.60;99.90
37944;DHT22;23767;42.024;23.086;2024-03-17T04:13:33;9.60;99.90
37944;DHT22;23767;42.024;23.086;2024-03-17T04:16:06;9.50;99.90
37944;DHT22;23767;42.024;23.086;2024-03-17T04:18:33;9.60;99.90
37944;DHT22;23767;42.024;23.086;2024-03-17T04:21:04;9.60;99.90
37944;DHT22;23767;42.024;23.086;2024-03-17T04:23:30;9.60;99.90
37944;DHT22;23767;42.024;23.086;2024-03-17T04:26:00;9.30;99.90
37944;DHT22;23767;42.024;23.086;2024-03-17T04:28:27;9.50;99.90
37944;DHT22;23767;42.024;23.086;2024-03-17T04:31:05;9.60;99.90
37944;DHT22;23767;42.024;23.086;2024-03-17T04:33:50;9.60;99.90
37944;DHT22;23767;42.024;23.086;2024-03-17T04:36:17;9.10;99.90
37944;DHT22;23767;42.024;23.086;2024-03-17T04:38:42;9.00;99.90
37944;DHT22;23767;42.024;23.086;2024-03-17T04:41:08;8.90;99.90
37944;DHT22;23767;42.024;23.086;2024-03-17T04:43:35;9.00;99.90
37944;DHT22;23767;42.024;23.086;2024-03-17T04:46:02;8.90;99.90
37944;DHT22;23767;42.024;23.086;2024-03-17T04:48:30;8.70;99.90
37944;DHT22;23767;42.024;23.086;2024-03-17T04:50:56;8.70;99.90
37944;DHT22;23767;42.024;23.086;2024-03-17T04:53:22;8.80;99.90
37944;DHT22;23767;42.024;23.086;2024-03-17T04:55:47;8.90;99.90
37944;DHT22;23767;42.024;23.086;2024-03-17T04:58:13;9.00;99.90
37944;DHT22;23767;42.024;23.086;2024-03-17T05:03:14;8.80;99.90
37944;DHT22;23767;42.024;23.086;2024-03-17T05:05:41;8.90;99.90
37944;DHT22;23767;42.024;23.086;2024-03-17T05:08:07;9.00;99.90
37944;DHT22;23767;42.024;23.086;2024-03-17T05:10:32;9.10;99.90
37944;DHT22;23767;42.024;23.086;2024-03-17T05:12:58;9.10;99.90
37944;DHT22;23767;42.024;23.086;2024-03-17T05:15:24;9.20;99.90
37944;DHT22;23767;42.024;23.086;2024-03-17T05:17:50;9.30;99.90
37944;DHT22;23767;42.024;23.086;2024-03-17T05:20:15;9.60;99.90
37944;DHT22;23767;42.024;23.086;2024-03-17T05:22:41;9.80;99.90
37944;DHT22;23767;42.024;23.086;2024-03-17T05:25:07;9.90;99.90
37944;DHT22;23767;42.024;23.086;2024-03-17T05:27:33;10.10;99.90
37944;DHT22;23767;42.024;23.086;2024-03-17T05:29:59;10.00;99.90
37944;DHT22;23767;42.024;23.086;2024-03-17T05:32:25;9.90;99.90
37944;DHT22;23767;42.024;23.086;2024-03-17T05:34:52;9.50;99.90
37944;DHT22;23767;42.024;23.086;2024-03-17T05:37:18;9.70;99.90
37944;DHT22;23767;42.024;23.086;2024-03-17T05:39:44;9.90;99.90
37944;DHT22;23767;42.024;23.086;2024-03-17T05:42:10;10.10;99.90
37944;DHT22;23767;42.024;23.086;2024-03-17T05:44:35;10.20;99.90
37944;DHT22;23767;42.024;23.086;2024-03-17T05:47:17;10.10;99.90
37944;DHT22;23767;42.024;23.086;2024-03-17T05:49:42;9.90;99.90
37944;DHT22;23767;42.024;23.086;2024-03-17T05:52:15;10.10;99.90
37944;DHT22;23767;42.024;23.086;2024-03-17T05:54:40;10.30;99.90
37944;DHT22;23767;42.024;23.086;2024-03-17T05:57:06;10.40;99.90
37944;DHT22;23767;42.024;23.086;2024-03-17T05:59:34;10.70;99.90
37944;DHT22;23767;42.024;23.086;2024-03-17T06:02:00;10.80;99.90
37944;DHT22;23767;42.024;23.086;2024-03-17T06:04:26;10.90;99.90
37944;DHT22;23767;42.024;23.086;2024-03-17T06:06:52;10.90;99.90
37944;DHT22;23767;42.024;23.086;2024-03-17T06:09:22;10.90;99.90
37944;DHT22;23767;42.024;23.086;2024-03-17T06:11:48;10.90;99.90
37944;DHT22;23767;42.024;23.086;2024-03-17T06:14:14;10.90;99.90
37944;DHT22;23767;42.024;23.086;2024-03-17T06:16:39;10.90;99.90
37944;DHT22;23767;42.024;23.086;2024-03-17T06:19:06;11.10;99.90
37944;DHT22;23767;42.024;23.086;2024-03-17T06:21:32;11.10;99.90
37944;DHT22;23767;42.024;23.086;2024-03-17T06:23:58;11.10;99.90
37944;DHT22;23767;42.024;23.086;2024-03-17T06:26:24;11.10;99.90
37944;DHT22;23767;42.024;23.086;2024-03-17T06:28:51;11.10;99.90
37944;DHT22;23767;42.024;23.086;2024-03-17T06:31:17;11.10;99.90
37944;DHT22;23767;42.024;23.086;2024-03-17T06:33:43;11.10;99.90
37944;DHT22;23767;42.024;23.086;2024-03-17T06:36:09;11.10;99.90
37944;DHT22;23767;42.024;23.086;2024-03-17T06:38:34;11.20;99.90
37944;DHT22;23767;42.024;23.086;2024-03-17T06:41:00;11.30;99.90
37944;DHT22;23767;42.024;23.086;2024-03-17T06:43:26;11.40;99.90
37944;DHT22;23767;42.024;23.086;2024-03-17T06:45:58;11.40;99.90
37944;DHT22;23767;42.024;23.086;2024-03-17T06:48:25;11.50;99.90
37944;DHT22;23767;42.024;23.086;2024-03-17T06:50:52;11.60;99.90
37944;DHT22;23767;42.024;23.086;2024-03-17T06:53:20;11.70;99.90
37944;DHT22;23767;42.024;23.086;2024-03-17T06:55:56;11.70;99.90
37944;DHT22;23767;42.024;23.086;2024-03-17T06:58:24;11.70;99.90
37944;DHT22;23767;42.024;23.086;2024-03-17T07:01:02;11.80;99.90
37944;DHT22;23767;42.024;23.086;2024-03-17T07:03:30;11.20;99.90
37944;DHT22;23767;42.024;23.086;2024-03-17T07:05:57;11.40;99.90
37944;DHT22;23767;42.024;23.086;2024-03-17T07:08:24;11.50;99.90
37944;DHT22;23767;42.024;23.086;2024-03-17T07:11:00;11.70;99.90
37944;DHT22;23767;42.024;23.086;2024-03-17T07:13:29;11.80;99.90
37944;DHT22;23767;42.024;23.086;2024-03-17T07:15:55;11.90;99.90
37944;DHT22;23767;42.024;23.086;2024-03-17T07:18:21;12.00;99.90
37944;DHT22;23767;42.024;23.086;2024-03-17T07:20:47;12.10;99.90
37944;DHT22;23767;42.024;23.086;2024-03-17T07:23:15;12.30;99.90
37944;DHT22;23767;42.024;23.086;2024-03-17T07:25:41;12.30;99.90
37944;DHT22;23767;42.024;23.086;2024-03-17T07:28:09;12.40;99.90
37944;DHT22;23767;42.024;23.086;2024-03-17T07:30:35;12.50;99.90
37944;DHT22;23767;42.024;23.086;2024-03-17T07:33:01;12.50;99.90
37944;DHT22;23767;42.024;23.086;2024-03-17T07:35:26;12.40;99.90
37944;DHT22;23767;42.024;23.086;2024-03-17T07:37:52;12.50;99.90
37944;DHT22;23767;42.024;23.086;2024-03-17T07:40:18;12.50;99.90
37944;DHT22;23767;42.024;23.086;2024-03-17T07:42:44;12.60;99.90
37944;DHT22;23767;42.024;23.086;2024-03-17T07:45:10;12.60;99.90
37944;DHT22;23767;42.024;23.086;2024-03-17T07:47:37;12.80;99.90
37944;DHT22;23767;42.024;23.086;2024-03-17T07:50:03;12.80;99.90
37944;DHT22;23767;42.024;23.086;2024-03-17T07:52:31;12.90;99.90
37944;DHT22;23767;42.024;23.086;2024-03-17T07:54:57;12.90;99.90
37944;DHT22;23767;42.024;23.086;2024-03-17T07:57:23;12.90;99.90
37944;DHT22;23767;42.024;23.086;2024-03-17T07:59:52;13.00;99.90
37944;DHT22;23767;42.024;23.086;2024-03-17T08:02:17;13.20;99.90
37944;DHT22;23767;42.024;23.086;2024-03-17T08:04:43;13.30;99.90
37944;DHT22;23767;42.024;23.086;2024-03-17T08:07:12;13.20;99.90
37944;DHT22;23767;42.024;23.086;2024-03-17T08:09:38;13.30;99.90
37944;DHT22;23767;42.024;23.086;2024-03-17T08:12:03;13.40;99.90
37944;DHT22;23767;42.024;23.086;2024-03-17T08:14:30;13.50;99.90
37944;DHT22;23767;42.024;23.086;2024-03-17T08:16:56;13.60;99.90
37944;DHT22;23767;42.024;23.086;2024-03-17T08:19:22;13.70;99.90
37944;DHT22;23767;42.024;23.086;2024-03-17T08:21:47;13.70;99.90
37944;DHT22;23767;42.024;23.086;2024-03-17T08:24:13;13.70;99.90
37944;DHT22;23767;42.024;23.086;2024-03-17T08:26:39;13.70;99.90
37944;DHT22;23767;42.024;23.086;2024-03-17T08:29:11;13.60;99.90
37944;DHT22;23767;42.024;23.086;2024-03-17T08:31:36;13.20;99.90
37944;DHT22;23767;42.024;23.086;2024-03-17T08:34:02;13.30;99.90
37944;DHT22;23767;42.024;23.086;2024-03-17T08:36:28;13.40;99.90
37944;DHT22;23767;42.024;23.086;2024-03-17T08:38:54;13.60;99.90
37944;DHT22;23767;42.024;23.086;2024-03-17T08:41:21;13.70;99.90
37944;DHT22;23767;42.024;23.086;2024-03-17T08:43:47;13.80;99.90
37944;DHT22;23767;42.024;23.086;2024-03-17T08:46:12;13.80;99.90
37944;DHT22;23767;42.024;23.086;2024-03-17T08:48:40;13.80;99.90
37944;DHT22;23767;42.024;23.086;2024-03-17T08:51:07;13.90;99.90
37944;DHT22;23767;42.024;23.086;2024-03-17T08:53:34;14.00;99.90
37944;DHT22;23767;42.024;23.086;2024-03-17T08:56:00;13.90;99.90
37944;DHT22;23767;42.024;23.086;2024-03-17T08:58:26;14.10;99.90
37944;DHT22;23767;42.024;23.086;2024-03-17T09:00:52;14.10;99.90
37944;DHT22;23767;42.024;23.086;2024-03-17T09:03:18;14.20;99.90
37944;DHT22;23767;42.024;23.086;2024-03-17T09:05:46;14.20;99.90
37944;DHT22;23767;42.024;23.086;2024-03-17T09:08:20;14.10;99.90
37944;DHT22;23767;42.024;23.086;2024-03-17T09:10:48;14.10;99.90
37944;DHT22;23767;42.024;23.086;2024-03-17T09:13:16;14.30;99.90
37944;DHT22;23767;42.024;23.086;2024-03-17T09:18:22;14.60;99.90
37944;DHT22;23767;42.024;23.086;2024-03-17T09:21:05;14.60;99.90
37944;DHT22;23767;42.024;23.086;2024-03-17T09:23:33;14.60;99.90
37944;DHT22;23767;42.024;23.086;2024-03-17T09:26:05;14.70;99.90
37944;DHT22;23767;42.024;23.086;2024-03-17T09:28:32;14.30;99.90
37944;DHT22;23767;42.024;23.086;2024-03-17T09:30:59;14.10;99.50
37944;DHT22;23767;42.024;23.086;2024-03-17T09:33:26;14.10;98.70
37944;DHT22;23767;42.024;23.086;2024-03-17T09:35:55;14.00;98.90
37944;DHT22;23767;42.024;23.086;2024-03-17T09:38:22;13.90;99.60
37944;DHT22;23767;42.024;23.086;2024-03-17T09:40:48;13.90;99.90
37944;DHT22;23767;42.024;23.086;2024-03-17T09:43:22;14.00;99.90
37944;DHT22;23767;42.024;23.086;2024-03-17T09:45:48;14.20;99.70
37944;DHT22;23767;42.024;23.086;2024-03-17T09:48:16;14.40;99.70
37944;DHT22;23767;42.024;23.086;2024-03-17T09:50:49;14.60;99.50
37944;DHT22;23767;42.024;23.086;2024-03-17T09:53:16;14.70;98.90
37944;DHT22;23767;42.024;23.086;2024-03-17T09:55:44;14.80;98.00
37944;DHT22;23767;42.024;23.086;2024-03-17T09:58:15;15.00;97.00
37944;DHT22;23767;42.024;23.086;2024-03-17T10:00:43;15.20;97.80
37944;DHT22;23767;42.024;23.086;2024-03-17T10:03:09;15.50;95.60
37944;DHT22;23767;42.024;23.086;2024-03-17T10:05:35;15.60;93.90
37944;DHT22;23767;42.024;23.086;2024-03-17T10:08:00;15.70;95.30
37944;DHT22;23767;42.024;23.086;2024-03-17T10:10:26;16.00;95.20
37944;DHT22;23767;42.024;23.086;2024-03-17T10:12:52;15.60;90.60
37944;DHT22;23767;42.024;23.086;2024-03-17T10:15:19;15.70;91.00
37944;DHT22;23767;42.024;23.086;2024-03-17T10:17:46;15.80;85.90
37944;DHT22;23767;42.024;23.086;2024-03-17T10:22:57;16.00;86.70
37944;DHT22;23767;42.024;23.086;2024-03-17T10:25:30;16.00;87.80
37944;DHT22;23767;42.024;23.086;2024-03-17T10:27:56;16.00;87.00
37944;DHT22;23767;42.024;23.086;2024-03-17T10:30:24;16.00;85.10
37944;DHT22;23767;42.024;23.086;2024-03-17T10:33:01;15.90;82.10
37944;DHT22;23767;42.024;23.086;2024-03-17T10:35:32;15.80;81.90
37944;DHT22;23767;42.024;23.086;2024-03-17T10:38:02;15.60;81.20
37944;DHT22;23767;42.024;23.086;2024-03-17T10:40:30;15.70;82.80
37944;DHT22;23767;42.024;23.086;2024-03-17T10:42:57;15.70;77.00
37944;DHT22;23767;42.024;23.086;2024-03-17T10:45:23;15.60;79.90
37944;DHT22;23767;42.024;23.086;2024-03-17T10:47:51;15.60;80.50
37944;DHT22;23767;42.024;23.086;2024-03-17T10:50:22;15.70;79.90
37944;DHT22;23767;42.024;23.086;2024-03-17T10:52:49;15.70;78.80
37944;DHT22;23767;42.024;23.086;2024-03-17T10:55:23;16.00;78.80
37944;DHT22;23767;42.024;23.086;2024-03-17T10:57:51;15.80;77.90
37944;DHT22;23767;42.024;23.086;2024-03-17T11:00:19;15.70;78.70
37944;DHT22;23767;42.024;23.086;2024-03-17T11:02:45;15.70;77.00
37944;DHT22;23767;42.024;23.086;2024-03-17T11:05:23;15.90;77.60
37944;DHT22;23767;42.024;23.086;2024-03-17T11:07:53;16.00;73.80
37944;DHT22;23767;42.024;23.086;2024-03-17T11:10:29;16.10;74.80
37944;DHT22;23767;42.024;23.086;2024-03-17T11:12:56;16.20;76.20
37944;DHT22;23767;42.024;23.086;2024-03-17T11:17:55;16.30;74.00
37944;DHT22;23767;42.024;23.086;2024-03-17T11:20:25;16.00;74.50
37944;DHT22;23767;42.024;23.086;2024-03-17T11:22:53;16.00;74.40
37944;DHT22;23767;42.024;23.086;2024-03-17T11:28:00;15.80;75.40
37944;DHT22;23767;42.024;23.086;2024-03-17T11:38:58;15.90;74.30
37944;DHT22;23767;42.024;23.086;2024-03-17T11:46:42;15.80;76.40
37944;DHT22;23767;42.024;23.086;2024-03-17T11:52:16;16.00;75.30
37944;DHT22;23767;42.024;23.086;2024-03-17T11:54:46;16.00;74.40
37944;DHT22;23767;42.024;23.086;2024-03-17T11:57:23;16.10;75.10
37944;DHT22;23767;42.024;23.086;2024-03-17T11:59:50;16.20;73.60
37944;DHT22;23767;42.024;23.086;2024-03-17T12:04:46;16.20;73.90
37944;DHT22;23767;42.024;23.086;2024-03-17T12:07:15;16.00;73.50
37944;DHT22;23767;42.024;23.086;2024-03-17T12:09:42;16.20;73.30
37944;DHT22;23767;42.024;23.086;2024-03-17T12:12:27;16.10;72.80
37944;DHT22;23767;42.024;23.086;2024-03-17T12:15:19;16.00;74.10
37944;DHT22;23767;42.024;23.086;2024-03-17T12:17:52;16.10;73.40
37944;DHT22;23767;42.024;23.086;2024-03-17T12:20:19;16.20;73.70
37944;DHT22;23767;42.024;23.086;2024-03-17T12:22:45;16.10;73.40
37944;DHT22;23767;42.024;23.086;2024-03-17T12:25:20;16.10;72.70
37944;DHT22;23767;42.024;23.086;2024-03-17T12:27:46;16.10;72.40
37944;DHT22;23767;42.024;23.086;2024-03-17T12:30:14;16.10;74.10
37944;DHT22;23767;42.024;23.086;2024-03-17T12:32:41;16.10;74.10
37944;DHT22;23767;42.024;23.086;2024-03-17T12:35:14;16.10;74.20
37944;DHT22;23767;42.024;23.086;2024-03-17T12:37:44;16.20;74.90
37944;DHT22;23767;42.024;23.086;2024-03-17T12:40:23;16.30;74.00
37944;DHT22;23767;42.024;23.086;2024-03-17T12:42:51;16.20;74.00
37944;DHT22;23767;42.024;23.086;2024-03-17T12:45:23;16.00;74.20
37944;DHT22;23767;42.024;23.086;2024-03-17T12:47:50;15.90;74.80
37944;DHT22;23767;42.024;23.086;2024-03-17T12:50:16;15.90;75.60
37944;DHT22;23767;42.024;23.086;2024-03-17T12:52:52;15.80;74.30
37944;DHT22;23767;42.024;23.086;2024-03-17T12:55:19;15.70;75.90
37944;DHT22;23767;42.024;23.086;2024-03-17T12:58:06;15.60;74.60
37944;DHT22;23767;42.024;23.086;2024-03-17T13:00:57;15.60;75.10
37944;DHT22;23767;42.024;23.086;2024-03-17T13:03:25;15.60;75.60
37944;DHT22;23767;42.024;23.086;2024-03-17T13:05:51;15.60;76.70
37944;DHT22;23767;42.024;23.086;2024-03-17T13:08:17;15.50;76.20
37944;DHT22;23767;42.024;23.086;2024-03-17T13:10:43;15.40;76.00
37944;DHT22;23767;42.024;23.086;2024-03-17T13:13:10;15.50;76.00
37944;DHT22;23767;42.024;23.086;2024-03-17T13:15:38;15.60;76.50
37944;DHT22;23767;42.024;23.086;2024-03-17T13:18:05;15.70;76.10
37944;DHT22;23767;42.024;23.086;2024-03-17T13:20:34;15.70;75.70
37944;DHT22;23767;42.024;23.086;2024-03-17T13:23:03;15.80;76.40
37944;DHT22;23767;42.024;23.086;2024-03-17T13:25:29;16.10;75.70
37944;DHT22;23767;42.024;23.086;2024-03-17T13:28:00;16.30;75.50
37944;DHT22;23767;42.024;23.086;2024-03-17T13:30:26;16.20;75.20
37944;DHT22;23767;42.024;23.086;2024-03-17T13:32:54;16.00;75.40
37944;DHT22;23767;42.024;23.086;2024-03-17T13:35:28;16.00;75.70
37944;DHT22;23767;42.024;23.086;2024-03-17T13:37:55;15.80;76.70
37944;DHT22;23767;42.024;23.086;2024-03-17T13:40:25;15.70;75.90
37944;DHT22;23767;42.024;23.086;2024-03-17T13:42:54;15.50;77.10
37944;DHT22;23767;42.024;23.086;2024-03-17T13:45:22;15.50;77.30
37944;DHT22;23767;42.024;23.086;2024-03-17T13:47:58;15.50;78.00
37944;DHT22;23767;42.024;23.086;2024-03-17T13:50:24;15.40;77.30
37944;DHT22;23767;42.024;23.086;2024-03-17T13:52:51;15.30;78.10
37944;DHT22;23767;42.024;23.086;2024-03-17T13:55:21;15.30;77.80
37944;DHT22;23767;42.024;23.086;2024-03-17T13:57:53;15.30;78.30
37944;DHT22;23767;42.024;23.086;2024-03-17T14:00:23;15.20;77.80
37944;DHT22;23767;42.024;23.086;2024-03-17T14:02:50;15.10;78.40
37944;DHT22;23767;42.024;23.086;2024-03-17T14:05:20;15.10;78.60
37944;DHT22;23767;42.024;23.086;2024-03-17T14:07:47;15.00;78.40
37944;DHT22;23767;42.024;23.086;2024-03-17T14:10:17;14.90;79.00
37944;DHT22;23767;42.024;23.086;2024-03-17T14:12:43;14.90;79.50
37944;DHT22;23767;42.024;23.086;2024-03-17T14:15:11;14.90;80.10
37944;DHT22;23767;42.024;23.086;2024-03-17T14:17:42;14.80;79.60
37944;DHT22;23767;42.024;23.086;2024-03-17T14:20:08;14.80;80.50
37944;DHT22;23767;42.024;23.086;2024-03-17T14:22:38;14.70;81.30
37944;DHT22;23767;42.024;23.086;2024-03-17T14:25:05;14.70;81.30
37944;DHT22;23767;42.024;23.086;2024-03-17T14:27:31;14.80;82.40
37944;DHT22;23767;42.024;23.086;2024-03-17T14:29:57;14.80;82.70
37944;DHT22;23767;42.024;23.086;2024-03-17T14:32:23;14.80;82.00
37944;DHT22;23767;42.024;23.086;2024-03-17T14:34:51;14.90;81.70
37944;DHT22;23767;42.024;23.086;2024-03-17T14:37:17;14.90;81.20
37944;DHT22;23767;42.024;23.086;2024-03-17T14:39:43;14.90;82.00
37944;DHT22;23767;42.024;23.086;2024-03-17T14:42:09;15.00;82.10
37944;DHT22;23767;42.024;23.086;2024-03-17T14:44:36;15.00;82.00
37944;DHT22;23767;42.024;23.086;2024-03-17T14:47:02;15.00;81.80
37944;DHT22;23767;42.024;23.086;2024-03-17T14:49:30;14.90;81.90
37944;DHT22;23767;42.024;23.086;2024-03-17T14:51:56;14.80;82.00
37944;DHT22;23767;42.024;23.086;2024-03-17T14:54:22;14.80;81.60
37944;DHT22;23767;42.024;23.086;2024-03-17T14:56:48;15.00;81.80
37944;DHT22;23767;42.024;23.086;2024-03-17T14:59:13;15.10;82.70
37944;DHT22;23767;42.024;23.086;2024-03-17T15:01:43;15.10;82.40
37944;DHT22;23767;42.024;23.086;2024-03-17T15:04:08;15.00;83.30
37944;DHT22;23767;42.024;23.086;2024-03-17T15:06:34;14.90;82.70
37944;DHT22;23767;42.024;23.086;2024-03-17T15:09:01;14.70;84.00
37944;DHT22;23767;42.024;23.086;2024-03-17T15:11:28;14.60;84.80
37944;DHT22;23767;42.024;23.086;2024-03-17T15:13:53;14.50;84.50
37944;DHT22;23767;42.024;23.086;2024-03-17T15:16:19;14.50;85.80
37944;DHT22;23767;42.024;23.086;2024-03-17T15:18:44;14.50;85.90
37944;DHT22;23767;42.024;23.086;2024-03-17T15:21:10;14.50;86.20
37944;DHT22;23767;42.024;23.086;2024-03-17T15:23:38;14.60;86.40
37944;DHT22;23767;42.024;23.086;2024-03-17T15:26:06;14.70;86.00
37944;DHT22;23767;42.024;23.086;2024-03-17T15:28:42;14.70;85.60
37944;DHT22;23767;42.024;23.086;2024-03-17T15:31:09;14.70;85.20
37944;DHT22;23767;42.024;23.086;2024-03-17T15:33:36;14.50;86.00
37944;DHT22;23767;42.024;23.086;2024-03-17T15:36:07;14.40;86.30
37944;DHT22;23767;42.024;23.086;2024-03-17T15:38:34;14.30;88.30
37944;DHT22;23767;42.024;23.086;2024-03-17T15:41:03;14.20;89.50
37944;DHT22;23767;42.024;23.086;2024-03-17T15:43:32;14.10;90.10
37944;DHT22;23767;42.024;23.086;2024-03-17T15:46:00;14.00;90.30
37944;DHT22;23767;42.024;23.086;2024-03-17T15:48:26;14.00;90.90
37944;DHT22;23767;42.024;23.086;2024-03-17T15:50:57;14.00;91.40
37944;DHT22;23767;42.024;23.086;2024-03-17T15:53:24;13.90;91.80